sensor_id;sensor_type;location;lat;lon;timestamp;P1;durP1;ratioP1;P2;durP2;ratioP2
61291;SDS011;47165;42.664;23.368;2024-01-06T07:12:36;7.43;;;4.82;;
61291;SDS011;47165;42.664;23.368;2024-01-06T07:15:01;7.32;;;5.00;;
61291;SDS011;47165;42.664;23.368;2024-01-06T07:17:27;6.38;;;3.80;;
61291;SDS011;47165;42.664;23.368;2024-01-06T07:19:53;7.35;;;4.28;;
61291;SDS011;47165;42.664;23.368;2024-01-06T07:22:19;10.90;;;5.10;;
61291;SDS011;47165;42.664;23.368;2024-01-06T07:24:44;7.35;;;3.10;;
61291;SDS011;47165;42.664;23.368;2024-01-06T07:27:10;7.47;;;3.40;;
61291;SDS011;47165;42.664;23.368;2024-01-06T07:29:35;6.00;;;3.28;;
61291;SDS011;47165;42.664;23.368;2024-01-06T07:32:01;5.80;;;3.47;;
61291;SDS011;47165;42.664;23.368;2024-01-06T07:34:26;7.60;;;4.25;;
61291;SDS011;47165;42.664;23.368;2024-01-06T07:36:52;6.32;;;3.80;;
61291;SDS011;47165;42.664;23.368;2024-01-06T07:39:18;9.27;;;3.08;;
61291;SDS011;47165;42.664;23.368;2024-01-06T07:41:43;2.28;;;1.52;;
61291;SDS011;47165;42.664;23.368;2024-01-06T07:44:10;3.55;;;2.40;;
61291;SDS011;47165;42.664;23.368;2024-01-06T07:46:35;6.72;;;2.53;;
61291;SDS011;47165;42.664;23.368;2024-01-06T07:49:02;5.47;;;3.33;;
61291;SDS011;47165;42.664;23.368;2024-01-06T07:51:28;9.88;;;4.25;;
61291;SDS011;47165;42.664;23.368;2024-01-06T07:53:53;9.45;;;4.05;;
61291;SDS011;47165;42.664;23.368;2024-01-06T07:56:19;5.28;;;3.40;;
61291;SDS011;47165;42.664;23.368;2024-01-06T07:58:44;9.50;;;3.83;;
61291;SDS011;47165;42.664;23.368;2024-01-06T08:01:10;9.32;;;5.75;;
61291;SDS011;47165;42.664;23.368;2024-01-06T08:03:35;10.98;;;4.85;;
61291;SDS011;47165;42.664;23.368;2024-01-06T08:06:02;5.03;;;2.45;;
61291;SDS011;47165;42.664;23.368;2024-01-06T08:08:28;2.75;;;2.38;;
61291;SDS011;47165;42.664;23.368;2024-01-06T08:10:54;7.63;;;3.35;;
61291;SDS011;47165;42.664;23.368;2024-01-06T08:13:19;8.23;;;3.35;;
61291;SDS011;47165;42.664;23.368;2024-01-06T08:15:45;9.70;;;5.10;;
61291;SDS011;47165;42.664;23.368;2024-01-06T08:20:46;7.25;;;4.53;;
61291;SDS011;47165;42.664;23.368;2024-01-06T08:23:11;7.75;;;4.90;;
61291;SDS011;47165;42.664;23.368;2024-01-06T08:25:37;3.33;;;2.30;;
61291;SDS011;47165;42.664;23.368;2024-01-06T08:28:02;3.65;;;1.85;;
61291;SDS011;47165;42.664;23.368;2024-01-06T08:30:28;5.38;;;2.97;;
61291;SDS011;47165;42.664;23.368;2024-01-06T08:32:53;6.07;;;2.83;;
61291;SDS011;47165;42.664;23.368;2024-01-06T08:35:19;5.70;;;3.75;;
61291;SDS011;47165;42.664;23.368;2024-01-06T08:37:45;8.02;;;3.58;;
61291;SDS011;47165;42.664;23.368;2024-01-06T08:40:11;3.63;;;2.60;;
61291;SDS011;47165;42.664;23.368;2024-01-06T08:42:37;7.05;;;3.42;;
61291;SDS011;47165;42.664;23.368;2024-01-06T08:45:03;8.10;;;4.22;;
61291;SDS011;47165;42.664;23.368;2024-01-06T08:47:30;12.52;;;6.20;;
61291;SDS011;47165;42.664;23.368;2024-01-06T08:49:55;10.48;;;5.75;;
61291;SDS011;47165;42.664;23.368;2024-01-06T08:52:21;15.65;;;7.80;;
61291;SDS011;47165;42.664;23.368;2024-01-06T08:54:46;12.13;;;7.18;;
61291;SDS011;47165;42.664;23.368;2024-01-06T08:57:12;25.65;;;11.68;;
61291;SDS011;47165;42.664;23.368;2024-01-06T08:59:38;16.45;;;9.02;;
61291;SDS011;47165;42.664;23.368;2024-01-06T09:02:05;15.05;;;8.07;;
61291;SDS011;47165;42.664;23.368;2024-01-06T09:04:30;16.45;;;8.85;;
61291;SDS011;47165;42.664;23.368;2024-01-06T09:06:55;15.43;;;8.02;;
61291;SDS011;47165;42.664;23.368;2024-01-06T09:09:21;43.22;;;20.10;;
61291;SDS011;47165;42.664;23.368;2024-01-06T09:11:48;20.00;;;11.18;;
61291;SDS011;47165;42.664;23.368;2024-01-06T09:14:14;28.88;;;14.88;;
61291;SDS011;47165;42.664;23.368;2024-01-06T09:16:39;28.15;;;14.35;;
61291;SDS011;47165;42.664;23.368;2024-01-06T09:19:05;37.90;;;22.08;;
61291;SDS011;47165;42.664;23.368;2024-01-06T09:21:30;21.35;;;11.30;;
61291;SDS011;47165;42.664;23.368;2024-01-06T09:23:56;23.17;;;11.40;;
61291;SDS011;47165;42.664;23.368;2024-01-06T09:26:21;23.60;;;13.20;;
61291;SDS011;47165;42.664;23.368;2024-01-06T09:28:47;27.77;;;12.32;;
61291;SDS011;47165;42.664;23.368;2024-01-06T09:31:12;25.02;;;11.82;;
61291;SDS011;47165;42.664;23.368;2024-01-06T09:33:38;21.92;;;11.80;;
61291;SDS011;47165;42.664;23.368;2024-01-06T09:36:04;34.85;;;17.52;;
61291;SDS011;47165;42.664;23.368;2024-01-06T09:38:30;19.80;;;10.25;;
61291;SDS011;47165;42.664;23.368;2024-01-06T09:40:55;22.77;;;11.20;;
61291;SDS011;47165;42.664;23.368;2024-01-06T09:43:23;20.20;;;11.88;;
61291;SDS011;47165;42.664;23.368;2024-01-06T09:45:51;28.98;;;16.33;;
61291;SDS011;47165;42.664;23.368;2024-01-06T09:48:30;9.63;;;6.38;;
61291;SDS011;47165;42.664;23.368;2024-01-06T09:51:01;12.77;;;8.07;;
61291;SDS011;47165;42.664;23.368;2024-01-06T09:53:32;15.30;;;8.05;;
61291;SDS011;47165;42.664;23.368;2024-01-06T09:56:01;23.25;;;13.40;;
61291;SDS011;47165;42.664;23.368;2024-01-06T09:58:28;17.13;;;9.32;;
61291;SDS011;47165;42.664;23.368;2024-01-06T10:00:58;9.88;;;6.28;;
61291;SDS011;47165;42.664;23.368;2024-01-06T10:03:26;14.93;;;8.85;;
61291;SDS011;47165;42.664;23.368;2024-01-06T10:05:52;14.93;;;5.90;;
61291;SDS011;47165;42.664;23.368;2024-01-06T10:08:18;13.10;;;7.70;;
61291;SDS011;47165;42.664;23.368;2024-01-06T10:10:44;11.15;;;5.70;;
61291;SDS011;47165;42.664;23.368;2024-01-06T10:13:10;16.35;;;9.05;;
61291;SDS011;47165;42.664;23.368;2024-01-06T10:15:35;12.32;;;5.40;;
61291;SDS011;47165;42.664;23.368;2024-01-06T10:18:01;16.80;;;9.40;;
61291;SDS011;47165;42.664;23.368;2024-01-06T10:20:28;9.27;;;6.05;;
61291;SDS011;47165;42.664;23.368;2024-01-06T10:22:54;14.60;;;7.10;;
61291;SDS011;47165;42.664;23.368;2024-01-06T10:25:21;13.48;;;5.25;;
61291;SDS011;47165;42.664;23.368;2024-01-06T10:27:48;15.25;;;8.70;;
61291;SDS011;47165;42.664;23.368;2024-01-06T10:30:14;10.52;;;4.45;;
61291;SDS011;47165;42.664;23.368;2024-01-06T10:32:43;10.63;;;5.55;;
61291;SDS011;47165;42.664;23.368;2024-01-06T10:35:09;17.92;;;7.68;;
61291;SDS011;47165;42.664;23.368;2024-01-06T10:37:34;12.55;;;4.13;;
61291;SDS011;47165;42.664;23.368;2024-01-06T10:40:13;10.35;;;5.78;;
61291;SDS011;47165;42.664;23.368;2024-01-06T10:42:44;8.63;;;4.88;;
61291;SDS011;47165;42.664;23.368;2024-01-06T10:45:11;11.05;;;5.25;;
61291;SDS011;47165;42.664;23.368;2024-01-06T10:47:38;10.68;;;5.05;;
61291;SDS011;47165;42.664;23.368;2024-01-06T10:50:05;7.53;;;4.90;;
61291;SDS011;47165;42.664;23.368;2024-01-06T10:52:33;11.50;;;5.72;;
61291;SDS011;47165;42.664;23.368;2024-01-06T10:54:59;10.85;;;5.78;;
61291;SDS011;47165;42.664;23.368;2024-01-06T10:57:26;12.43;;;5.90;;
61291;SDS011;47165;42.664;23.368;2024-01-06T10:59:54;13.13;;;6.00;;
61291;SDS011;47165;42.664;23.368;2024-01-06T11:02:20;7.10;;;3.67;;
61291;SDS011;47165;42.664;23.368;2024-01-06T11:04:47;10.23;;;5.07;;
61291;SDS011;47165;42.664;23.368;2024-01-06T11:07:15;9.93;;;5.05;;
61291;SDS011;47165;42.664;23.368;2024-01-06T11:09:50;11.73;;;5.82;;
61291;SDS011;47165;42.664;23.368;2024-01-06T11:12:19;11.88;;;4.90;;
61291;SDS011;47165;42.664;23.368;2024-01-06T11:14:45;8.57;;;4.63;;
61291;SDS011;47165;42.664;23.368;2024-01-06T11:17:12;11.90;;;6.05;;
61291;SDS011;47165;42.664;23.368;2024-01-06T11:25:05;6.85;;;3.97;;
61291;SDS011;47165;42.664;23.368;2024-01-06T11:27:32;8.90;;;4.32;;
61291;SDS011;47165;42.664;23.368;2024-01-06T11:29:59;8.27;;;3.70;;
61291;SDS011;47165;42.664;23.368;2024-01-06T11:35:04;8.18;;;4.70;;
61291;SDS011;47165;42.664;23.368;2024-01-06T11:43:08;7.07;;;3.40;;
61291;SDS011;47165;42.664;23.368;2024-01-06T11:45:40;6.13;;;3.65;;
61291;SDS011;47165;42.664;23.368;2024-01-06T11:48:07;10.23;;;4.60;;
61291;SDS011;47165;42.664;23.368;2024-01-06T11:50:35;8.93;;;4.05;;
61291;SDS011;47165;42.664;23.368;2024-01-06T11:53:02;4.72;;;2.88;;
61291;SDS011;47165;42.664;23.368;2024-01-06T11:55:28;11.57;;;4.97;;
61291;SDS011;47165;42.664;23.368;2024-01-06T11:57:56;8.43;;;4.28;;
61291;SDS011;47165;42.664;23.368;2024-01-06T12:00:23;10.90;;;5.20;;
61291;SDS011;47165;42.664;23.368;2024-01-06T12:02:49;7.60;;;4.90;;
61291;SDS011;47165;42.664;23.368;2024-01-06T12:05:15;12.75;;;4.93;;
61291;SDS011;47165;42.664;23.368;2024-01-06T12:07:43;10.52;;;5.45;;
61291;SDS011;47165;42.664;23.368;2024-01-06T12:10:31;7.55;;;3.88;;
61291;SDS011;47165;42.664;23.368;2024-01-06T12:13:07;11.70;;;5.82;;
61291;SDS011;47165;42.664;23.368;2024-01-06T12:15:35;12.05;;;5.70;;
61291;SDS011;47165;42.664;23.368;2024-01-06T12:18:04;11.93;;;5.35;;
61291;SDS011;47165;42.664;23.368;2024-01-06T12:20:30;13.13;;;6.75;;
61291;SDS011;47165;42.664;23.368;2024-01-06T12:22:57;12.32;;;5.80;;
61291;SDS011;47165;42.664;23.368;2024-01-06T12:25:23;14.25;;;7.28;;
61291;SDS011;47165;42.664;23.368;2024-01-06T12:27:51;12.10;;;6.45;;
61291;SDS011;47165;42.664;23.368;2024-01-06T12:30:19;9.48;;;5.07;;
61291;SDS011;47165;42.664;23.368;2024-01-06T12:32:47;9.43;;;4.95;;
61291;SDS011;47165;42.664;23.368;2024-01-06T12:35:20;5.80;;;4.50;;
61291;SDS011;47165;42.664;23.368;2024-01-06T12:37:46;9.50;;;4.68;;
61291;SDS011;47165;42.664;23.368;2024-01-06T12:40:12;12.73;;;5.90;;
61291;SDS011;47165;42.664;23.368;2024-01-06T12:42:39;9.30;;;4.60;;
61291;SDS011;47165;42.664;23.368;2024-01-06T12:45:05;7.13;;;4.30;;
61291;SDS011;47165;42.664;23.368;2024-01-06T12:47:32;9.48;;;4.80;;
61291;SDS011;47165;42.664;23.368;2024-01-06T12:49:57;9.00;;;4.45;;
61291;SDS011;47165;42.664;23.368;2024-01-06T12:52:23;10.52;;;5.95;;
61291;SDS011;47165;42.664;23.368;2024-01-06T12:54:49;10.32;;;5.13;;
61291;SDS011;47165;42.664;23.368;2024-01-06T12:57:14;9.18;;;5.57;;
61291;SDS011;47165;42.664;23.368;2024-01-06T12:59:40;8.82;;;4.78;;
61291;SDS011;47165;42.664;23.368;2024-01-06T13:02:06;7.90;;;4.55;;
61291;SDS011;47165;42.664;23.368;2024-01-06T13:04:31;10.32;;;5.18;;
61291;SDS011;47165;42.664;23.368;2024-01-06T13:06:57;8.80;;;5.05;;
61291;SDS011;47165;42.664;23.368;2024-01-06T14:55:24;5.90;;;2.55;;
61291;SDS011;47165;42.664;23.368;2024-01-06T15:47:30;10.35;;;5.20;;
61291;SDS011;47165;42.664;23.368;2024-01-06T15:49:56;10.63;;;4.70;;
61291;SDS011;47165;42.664;23.368;2024-01-06T15:52:21;8.65;;;4.43;;
61291;SDS011;47165;42.664;23.368;2024-01-06T15:54:48;7.68;;;4.25;;
61291;SDS011;47165;42.664;23.368;2024-01-06T15:57:14;7.15;;;3.90;;
61291;SDS011;47165;42.664;23.368;2024-01-06T15:59:45;4.20;;;3.33;;
61291;SDS011;47165;42.664;23.368;2024-01-06T16:02:11;8.13;;;3.78;;
61291;SDS011;47165;42.664;23.368;2024-01-06T16:04:36;9.68;;;5.32;;
61291;SDS011;47165;42.664;23.368;2024-01-06T16:07:02;8.85;;;4.10;;
61291;SDS011;47165;42.664;23.368;2024-01-06T16:09:30;7.95;;;4.15;;
61291;SDS011;47165;42.664;23.368;2024-01-06T16:11:56;7.38;;;3.42;;
61291;SDS011;47165;42.664;23.368;2024-01-06T16:14:24;7.38;;;4.32;;
61291;SDS011;47165;42.664;23.368;2024-01-06T16:16:53;10.05;;;3.92;;
61291;SDS011;47165;42.664;23.368;2024-01-06T16:19:18;7.18;;;4.15;;
61291;SDS011;47165;42.664;23.368;2024-01-06T16:21:44;7.55;;;4.20;;
61291;SDS011;47165;42.664;23.368;2024-01-06T16:24:19;7.00;;;4.03;;
61291;SDS011;47165;42.664;23.368;2024-01-06T16:26:53;5.93;;;3.35;;
61291;SDS011;47165;42.664;23.368;2024-01-06T16:29:19;3.70;;;3.33;;
61291;SDS011;47165;42.664;23.368;2024-01-06T16:31:45;10.02;;;5.13;;
61291;SDS011;47165;42.664;23.368;2024-01-06T16:34:11;14.43;;;6.07;;
61291;SDS011;47165;42.664;23.368;2024-01-06T16:36:37;15.45;;;7.47;;
61291;SDS011;47165;42.664;23.368;2024-01-06T16:39:03;14.88;;;6.63;;
61291;SDS011;47165;42.664;23.368;2024-01-06T16:41:28;8.75;;;4.72;;
61291;SDS011;47165;42.664;23.368;2024-01-06T16:43:54;8.07;;;4.88;;
61291;SDS011;47165;42.664;23.368;2024-01-06T16:46:21;9.10;;;4.18;;
61291;SDS011;47165;42.664;23.368;2024-01-06T16:48:46;10.68;;;4.93;;
61291;SDS011;47165;42.664;23.368;2024-01-06T16:51:14;9.63;;;5.05;;
61291;SDS011;47165;42.664;23.368;2024-01-06T16:53:40;11.57;;;5.68;;
61291;SDS011;47165;42.664;23.368;2024-01-06T16:56:06;10.18;;;5.60;;
61291;SDS011;47165;42.664;23.368;2024-01-06T16:58:32;14.75;;;6.45;;
61291;SDS011;47165;42.664;23.368;2024-01-06T17:00:58;13.73;;;5.65;;
61291;SDS011;47165;42.664;23.368;2024-01-06T17:03:25;9.90;;;6.28;;
61291;SDS011;47165;42.664;23.368;2024-01-06T17:05:51;14.57;;;7.00;;
61291;SDS011;47165;42.664;23.368;2024-01-06T17:08:17;10.05;;;6.20;;
61291;SDS011;47165;42.664;23.368;2024-01-06T17:10:43;11.90;;;6.05;;
61291;SDS011;47165;42.664;23.368;2024-01-06T17:13:08;9.75;;;5.55;;
61291;SDS011;47165;42.664;23.368;2024-01-06T17:15:34;9.10;;;5.68;;
61291;SDS011;47165;42.664;23.368;2024-01-06T17:17:59;12.85;;;5.50;;
61291;SDS011;47165;42.664;23.368;2024-01-06T17:20:26;11.38;;;5.78;;
61291;SDS011;47165;42.664;23.368;2024-01-06T17:22:52;10.70;;;6.70;;
61291;SDS011;47165;42.664;23.368;2024-01-06T17:25:19;11.70;;;6.80;;
61291;SDS011;47165;42.664;23.368;2024-01-06T17:27:45;12.60;;;5.60;;
61291;SDS011;47165;42.664;23.368;2024-01-06T17:30:11;11.75;;;5.38;;
61291;SDS011;47165;42.664;23.368;2024-01-06T17:32:38;9.02;;;4.95;;
61291;SDS011;47165;42.664;23.368;2024-01-06T17:35:05;10.27;;;5.07;;
61291;SDS011;47165;42.664;23.368;2024-01-06T17:37:32;10.13;;;5.72;;
61291;SDS011;47165;42.664;23.368;2024-01-06T17:39:59;5.72;;;4.25;;
61291;SDS011;47165;42.664;23.368;2024-01-06T17:42:25;8.52;;;4.72;;
61291;SDS011;47165;42.664;23.368;2024-01-06T17:44:51;4.93;;;3.00;;
61291;SDS011;47165;42.664;23.368;2024-01-06T17:47:17;5.07;;;2.78;;
61291;SDS011;47165;42.664;23.368;2024-01-06T17:49:47;5.15;;;2.90;;
61291;SDS011;47165;42.664;23.368;2024-01-06T17:52:14;3.55;;;2.65;;
61291;SDS011;47165;42.664;23.368;2024-01-06T17:54:39;5.40;;;2.90;;
61291;SDS011;47165;42.664;23.368;2024-01-06T17:57:05;6.30;;;2.95;;
61291;SDS011;47165;42.664;23.368;2024-01-06T17:59:32;5.45;;;3.17;;
61291;SDS011;47165;42.664;23.368;2024-01-06T18:01:58;4.70;;;3.00;;
61291;SDS011;47165;42.664;23.368;2024-01-06T18:04:26;6.38;;;2.78;;
61291;SDS011;47165;42.664;23.368;2024-01-06T18:06:52;4.20;;;2.25;;
61291;SDS011;47165;42.664;23.368;2024-01-06T18:09:19;5.93;;;2.97;;
61291;SDS011;47165;42.664;23.368;2024-01-06T18:11:45;5.57;;;3.55;;
61291;SDS011;47165;42.664;23.368;2024-01-06T18:14:13;8.25;;;3.83;;
61291;SDS011;47165;42.664;23.368;2024-01-06T18:16:39;7.60;;;3.00;;
61291;SDS011;47165;42.664;23.368;2024-01-06T18:19:04;5.75;;;2.92;;
61291;SDS011;47165;42.664;23.368;2024-01-06T18:21:31;8.00;;;3.17;;
61291;SDS011;47165;42.664;23.368;2024-01-06T18:23:57;7.18;;;3.63;;
61291;SDS011;47165;42.664;23.368;2024-01-06T18:26:22;4.05;;;2.45;;
61291;SDS011;47165;42.664;23.368;2024-01-06T18:28:48;2.80;;;1.83;;
61291;SDS011;47165;42.664;23.368;2024-01-06T18:31:13;5.03;;;3.10;;
61291;SDS011;47165;42.664;23.368;2024-01-06T18:33:39;6.00;;;2.92;;
61291;SDS011;47165;42.664;23.368;2024-01-06T18:36:05;7.95;;;2.70;;
61291;SDS011;47165;42.664;23.368;2024-01-06T18:38:32;3.97;;;2.33;;
61291;SDS011;47165;42.664;23.368;2024-01-06T18:40:58;4.90;;;2.63;;
61291;SDS011;47165;42.664;23.368;2024-01-06T18:43:25;3.97;;;2.30;;
61291;SDS011;47165;42.664;23.368;2024-01-06T18:45:51;3.50;;;2.53;;
61291;SDS011;47165;42.664;23.368;2024-01-06T18:48:17;4.93;;;3.13;;
61291;SDS011;47165;42.664;23.368;2024-01-06T18:50:42;4.38;;;2.78;;
61291;SDS011;47165;42.664;23.368;2024-01-06T18:53:08;5.55;;;2.38;;
61291;SDS011;47165;42.664;23.368;2024-01-06T18:55:33;3.28;;;2.58;;
61291;SDS011;47165;42.664;23.368;2024-01-06T18:57:59;4.43;;;2.53;;
61291;SDS011;47165;42.664;23.368;2024-01-06T19:00:25;6.28;;;3.08;;
61291;SDS011;47165;42.664;23.368;2024-01-06T19:02:51;4.30;;;2.60;;
61291;SDS011;47165;42.664;23.368;2024-01-06T19:05:16;5.57;;;2.45;;
61291;SDS011;47165;42.664;23.368;2024-01-06T19:07:45;6.03;;;2.30;;
61291;SDS011;47165;42.664;23.368;2024-01-06T19:10:11;4.20;;;2.45;;
61291;SDS011;47165;42.664;23.368;2024-01-06T19:12:36;4.30;;;2.35;;
61291;SDS011;47165;42.664;23.368;2024-01-06T19:15:03;4.55;;;2.15;;
61291;SDS011;47165;42.664;23.368;2024-01-06T19:17:28;6.68;;;2.65;;
61291;SDS011;47165;42.664;23.368;2024-01-06T19:19:54;4.88;;;2.65;;
61291;SDS011;47165;42.664;23.368;2024-01-06T19:22:19;3.55;;;2.22;;
61291;SDS011;47165;42.664;23.368;2024-01-06T19:24:45;4.63;;;2.30;;
61291;SDS011;47165;42.664;23.368;2024-01-06T19:27:10;4.75;;;2.42;;
61291;SDS011;47165;42.664;23.368;2024-01-06T19:29:37;10.32;;;3.25;;
61291;SDS011;47165;42.664;23.368;2024-01-06T19:32:07;7.28;;;4.07;;
61291;SDS011;47165;42.664;23.368;2024-01-06T19:34:33;4.60;;;2.60;;
61291;SDS011;47165;42.664;23.368;2024-01-06T19:36:58;5.43;;;2.92;;
61291;SDS011;47165;42.664;23.368;2024-01-06T19:39:24;3.72;;;2.50;;
61291;SDS011;47165;42.664;23.368;2024-01-06T19:41:49;2.90;;;2.13;;
61291;SDS011;47165;42.664;23.368;2024-01-06T19:44:15;5.65;;;3.17;;
61291;SDS011;47165;42.664;23.368;2024-01-06T19:46:41;5.95;;;2.97;;
61291;SDS011;47165;42.664;23.368;2024-01-06T19:49:07;4.45;;;2.67;;
61291;SDS011;47165;42.664;23.368;2024-01-06T19:51:32;5.80;;;2.80;;
61291;SDS011;47165;42.664;23.368;2024-01-06T19:53:58;5.47;;;3.25;;
61291;SDS011;47165;42.664;23.368;2024-01-06T19:56:23;4.15;;;2.13;;
61291;SDS011;47165;42.664;23.368;2024-01-06T19:58:49;4.05;;;2.20;;
61291;SDS011;47165;42.664;23.368;2024-01-06T20:01:15;3.40;;;2.45;;
61291;SDS011;47165;42.664;23.368;2024-01-06T20:03:40;5.15;;;2.53;;
61291;SDS011;47165;42.664;23.368;2024-01-06T20:06:05;6.70;;;3.25;;
61291;SDS011;47165;42.664;23.368;2024-01-06T20:08:31;6.88;;;3.47;;
61291;SDS011;47165;42.664;23.368;2024-01-06T20:10:58;5.05;;;2.50;;
61291;SDS011;47165;42.664;23.368;2024-01-06T20:13:27;6.50;;;2.83;;
61291;SDS011;47165;42.664;23.368;2024-01-06T20:15:53;7.18;;;2.92;;
61291;SDS011;47165;42.664;23.368;2024-01-06T20:18:25;4.50;;;2.92;;
61291;SDS011;47165;42.664;23.368;2024-01-06T20:20:55;4.28;;;2.78;;
61291;SDS011;47165;42.664;23.368;2024-01-06T20:23:20;5.00;;;2.88;;
61291;SDS011;47165;42.664;23.368;2024-01-06T20:25:47;5.85;;;3.05;;
61291;SDS011;47165;42.664;23.368;2024-01-06T20:28:13;10.35;;;3.63;;
61291;SDS011;47165;42.664;23.368;2024-01-06T20:30:38;7.13;;;3.33;;
61291;SDS011;47165;42.664;23.368;2024-01-06T20:33:05;5.35;;;3.42;;
61291;SDS011;47165;42.664;23.368;2024-01-06T20:35:31;4.75;;;3.22;;
61291;SDS011;47165;42.664;23.368;2024-01-06T20:37:57;5.50;;;2.63;;
61291;SDS011;47165;42.664;23.368;2024-01-06T20:40:23;5.25;;;2.97;;
61291;SDS011;47165;42.664;23.368;2024-01-06T20:42:49;6.18;;;2.67;;
61291;SDS011;47165;42.664;23.368;2024-01-06T20:45:14;5.90;;;2.75;;
61291;SDS011;47165;42.664;23.368;2024-01-06T20:47:42;4.97;;;2.60;;
61291;SDS011;47165;42.664;23.368;2024-01-06T20:50:07;4.93;;;3.00;;
61291;SDS011;47165;42.664;23.368;2024-01-06T20:52:34;6.20;;;3.10;;
61291;SDS011;47165;42.664;23.368;2024-01-06T20:55:00;5.00;;;2.83;;
61291;SDS011;47165;42.664;23.368;2024-01-06T20:57:27;8.48;;;2.70;;
61291;SDS011;47165;42.664;23.368;2024-01-06T20:59:53;5.15;;;2.63;;
61291;SDS011;47165;42.664;23.368;2024-01-06T21:02:18;4.95;;;1.92;;
61291;SDS011;47165;42.664;23.368;2024-01-06T21:04:45;6.68;;;2.70;;
61291;SDS011;47165;42.664;23.368;2024-01-06T21:07:11;7.35;;;3.63;;
61291;SDS011;47165;42.664;23.368;2024-01-06T21:09:37;4.10;;;2.30;;
61291;SDS011;47165;42.664;23.368;2024-01-06T21:12:03;4.55;;;2.45;;
61291;SDS011;47165;42.664;23.368;2024-01-06T21:14:28;3.30;;;1.63;;
61291;SDS011;47165;42.664;23.368;2024-01-06T21:16:54;5.18;;;2.42;;
61291;SDS011;47165;42.664;23.368;2024-01-06T21:19:20;2.58;;;1.88;;
61291;SDS011;47165;42.664;23.368;2024-01-06T21:21:47;5.13;;;2.70;;
61291;SDS011;47165;42.664;23.368;2024-01-06T21:24:13;3.38;;;1.75;;
61291;SDS011;47165;42.664;23.368;2024-01-06T21:26:38;4.57;;;2.78;;
61291;SDS011;47165;42.664;23.368;2024-01-06T21:29:04;7.75;;;3.42;;
61291;SDS011;47165;42.664;23.368;2024-01-06T21:31:30;7.40;;;2.92;;
61291;SDS011;47165;42.664;23.368;2024-01-06T21:33:56;8.30;;;4.30;;
61291;SDS011;47165;42.664;23.368;2024-01-06T21:36:21;2.65;;;2.03;;
61291;SDS011;47165;42.664;23.368;2024-01-06T21:38:47;6.20;;;1.92;;
61291;SDS011;47165;42.664;23.368;2024-01-06T21:41:13;4.45;;;2.58;;
61291;SDS011;47165;42.664;23.368;2024-01-06T21:43:39;6.97;;;2.42;;
61291;SDS011;47165;42.664;23.368;2024-01-06T21:46:05;3.53;;;1.73;;
61291;SDS011;47165;42.664;23.368;2024-01-06T21:48:30;4.75;;;1.77;;
61291;SDS011;47165;42.664;23.368;2024-01-06T21:50:59;2.00;;;1.38;;
61291;SDS011;47165;42.664;23.368;2024-01-06T21:53:24;3.40;;;1.58;;
61291;SDS011;47165;42.664;23.368;2024-01-06T21:55:50;4.38;;;2.45;;
61291;SDS011;47165;42.664;23.368;2024-01-06T21:58:15;3.88;;;2.50;;
61291;SDS011;47165;42.664;23.368;2024-01-06T22:00:41;3.80;;;2.35;;
61291;SDS011;47165;42.664;23.368;2024-01-06T22:03:10;3.42;;;2.47;;
61291;SDS011;47165;42.664;23.368;2024-01-06T22:05:36;4.43;;;2.65;;
61291;SDS011;47165;42.664;23.368;2024-01-06T22:08:02;7.93;;;2.58;;
61291;SDS011;47165;42.664;23.368;2024-01-06T22:10:29;2.05;;;1.60;;
61291;SDS011;47165;42.664;23.368;2024-01-06T22:13:01;1.80;;;1.33;;
61291;SDS011;47165;42.664;23.368;2024-01-06T22:15:27;3.95;;;1.70;;
61291;SDS011;47165;42.664;23.368;2024-01-06T22:17:53;4.18;;;2.08;;
61291;SDS011;47165;42.664;23.368;2024-01-06T22:20:19;3.03;;;1.67;;
61291;SDS011;47165;42.664;23.368;2024-01-06T22:22:45;3.85;;;1.60;;
61291;SDS011;47165;42.664;23.368;2024-01-06T22:25:10;2.63;;;1.85;;
61291;SDS011;47165;42.664;23.368;2024-01-06T22:27:36;4.13;;;1.70;;
61291;SDS011;47165;42.664;23.368;2024-01-06T22:30:02;3.15;;;1.20;;
61291;SDS011;47165;42.664;23.368;2024-01-06T22:32:28;2.72;;;1.38;;
61291;SDS011;47165;42.664;23.368;2024-01-06T22:34:54;1.67;;;1.15;;
61291;SDS011;47165;42.664;23.368;2024-01-06T22:37:20;2.30;;;1.88;;
61291;SDS011;47165;42.664;23.368;2024-01-06T22:39:46;3.80;;;1.45;;
61291;SDS011;47165;42.664;23.368;2024-01-06T22:42:12;2.15;;;1.73;;
61291;SDS011;47165;42.664;23.368;2024-01-06T22:44:39;1.92;;;1.20;;
61291;SDS011;47165;42.664;23.368;2024-01-06T22:47:08;2.55;;;2.00;;
61291;SDS011;47165;42.664;23.368;2024-01-06T22:49:33;3.75;;;1.80;;
61291;SDS011;47165;42.664;23.368;2024-01-06T22:52:00;2.50;;;1.42;;
61291;SDS011;47165;42.664;23.368;2024-01-06T22:54:27;3.35;;;1.50;;
61291;SDS011;47165;42.664;23.368;2024-01-06T22:56:53;5.55;;;1.80;;
61291;SDS011;47165;42.664;23.368;2024-01-06T23:02:12;5.32;;;1.52;;
61291;SDS011;47165;42.664;23.368;2024-01-06T23:04:38;2.95;;;1.17;;
61291;SDS011;47165;42.664;23.368;2024-01-06T23:07:03;6.63;;;1.45;;
61291;SDS011;47165;42.664;23.368;2024-01-06T23:09:29;7.03;;;2.47;;
61291;SDS011;47165;42.664;23.368;2024-01-06T23:11:54;2.42;;;1.83;;
61291;SDS011;47165;42.664;23.368;2024-01-06T23:14:20;3.55;;;2.20;;
61291;SDS011;47165;42.664;23.368;2024-01-06T23:16:46;3.10;;;1.33;;
61291;SDS011;47165;42.664;23.368;2024-01-06T23:19:11;5.00;;;2.20;;
61291;SDS011;47165;42.664;23.368;2024-01-06T23:21:37;2.40;;;1.50;;
61291;SDS011;47165;42.664;23.368;2024-01-06T23:24:02;2.63;;;1.40;;
61291;SDS011;47165;42.664;23.368;2024-01-06T23:26:28;2.95;;;1.45;;
61291;SDS011;47165;42.664;23.368;2024-01-06T23:28:54;5.90;;;2.78;;
61291;SDS011;47165;42.664;23.368;2024-01-06T23:31:19;4.47;;;2.85;;
61291;SDS011;47165;42.664;23.368;2024-01-06T23:33:45;7.55;;;2.65;;
61291;SDS011;47165;42.664;23.368;2024-01-06T23:36:11;9.55;;;2.53;;
61291;SDS011;47165;42.664;23.368;2024-01-06T23:38:37;4.22;;;2.88;;
61291;SDS011;47165;42.664;23.368;2024-01-06T23:41:02;5.25;;;2.03;;
61291;SDS011;47165;42.664;23.368;2024-01-06T23:43:27;9.23;;;3.90;;
61291;SDS011;47165;42.664;23.368;2024-01-06T23:45:53;6.78;;;3.15;;
61291;SDS011;47165;42.664;23.368;2024-01-06T23:48:18;5.43;;;3.20;;
61291;SDS011;47165;42.664;23.368;2024-01-06T23:50:44;7.85;;;3.72;;
61291;SDS011;47165;42.664;23.368;2024-01-06T23:53:10;7.68;;;2.97;;
61291;SDS011;47165;42.664;23.368;2024-01-06T23:55:36;4.22;;;2.92;;
61291;SDS011;47165;42.664;23.368;2024-01-06T23:58:02;7.50;;;4.15;;
